< < Back
Terminal Aerodrome Forecast


Current Version              Previous Versions:   1  2  3  4  5  6  7  8  9  

Terminal Aerodrome Forecast

821
FTUS42 KILM 242300
TAFFLO
TAF
KFLO 242331Z 2500/2524 16009KT P6SM SCT035 SCT250
     FM251000 15003KT 6SM BR BKN015 BKN070
     FM251300 19012G22KT P6SM VCSH SCT020 BKN035
     FM251800 23015G27KT P6SM SCT025 SCT090
     FM252200 24015G25KT 6SM -SHRA BKN045=

Latest METAR

619
SAUS70 KWBC 250200 RRH
MTRFLO
METAR KFLO 250153Z AUTO 13006KT 10SM CLR 16/10 A3002 RMK AO2 SLP162
T01610100


USA.gov is the U.S. government's official web portal to all federal, state and local government web resources and services.